createdAt,value
2022-12-14T00:01:53.955Z,11.69
2022-12-14T00:04:21.932Z,11.99
2022-12-14T00:06:49.937Z,11.79
2022-12-14T00:09:19.271Z,11.84
2022-12-14T00:11:47.258Z,11.65
2022-12-14T00:14:15.363Z,11.90
2022-12-14T00:16:43.478Z,11.78
2022-12-14T00:19:12.391Z,11.65
2022-12-14T00:21:40.343Z,11.65
2022-12-14T00:24:08.492Z,11.73
2022-12-14T00:26:37.906Z,11.47
2022-12-14T00:29:05.894Z,11.50
2022-12-14T00:31:33.931Z,11.49
2022-12-14T00:34:02.190Z,11.59
2022-12-14T00:36:31.455Z,11.58
2022-12-14T00:38:59.875Z,11.52
2022-12-14T00:41:27.864Z,11.77
2022-12-14T00:43:57.293Z,11.53
2022-12-14T00:46:25.418Z,11.70
2022-12-14T00:48:53.567Z,11.37
2022-12-14T00:51:23.068Z,11.71
2022-12-14T00:53:50.986Z,11.43
2022-12-14T00:56:18.874Z,11.59
2022-12-14T00:58:51.754Z,11.54
2022-12-14T01:01:21.953Z,11.83
2022-12-14T01:03:50.172Z,11.36
2022-12-14T01:06:20.189Z,11.29
2022-12-14T01:08:49.016Z,11.46
2022-12-14T01:11:16.944Z,11.58
2022-12-14T01:13:44.976Z,11.54
2022-12-14T01:16:17.926Z,11.28
2022-12-14T01:18:47.456Z,11.34
2022-12-14T01:21:17.757Z,11.47
2022-12-14T01:23:46.763Z,11.56
2022-12-14T01:26:16.734Z,11.48
2022-12-14T01:28:45.900Z,11.51
2022-12-14T01:31:15.848Z,11.63
2022-12-14T01:33:44.801Z,11.73
2022-12-14T01:36:16.702Z,11.60
2022-12-14T01:38:45.305Z,11.72
2022-12-14T01:41:25.099Z,11.85
2022-12-14T01:43:54.801Z,11.98
2022-12-14T01:46:29.393Z,11.80
2022-12-14T01:49:01.571Z,11.58
2022-12-14T01:51:32.673Z,11.87
2022-12-14T01:54:03.663Z,11.84
2022-12-14T01:56:33.711Z,11.89
2022-12-14T01:59:07.353Z,12.04
2022-12-14T02:01:35.880Z,11.88
2022-12-14T02:04:05.014Z,11.88
2022-12-14T02:06:36.902Z,11.73
2022-12-14T02:09:09.068Z,11.93
2022-12-14T02:11:44.543Z,11.94
2022-12-14T02:14:12.556Z,11.82
2022-12-14T02:16:41.667Z,12.17
2022-12-14T02:19:09.750Z,12.14
2022-12-14T02:21:55.510Z,12.06
2022-12-14T02:24:44.119Z,11.92
2022-12-14T02:27:27.181Z,12.41
2022-12-14T02:30:08.337Z,11.88
2022-12-14T02:32:59.593Z,12.08
2022-12-14T02:35:39.611Z,11.97
2022-12-14T02:38:19.466Z,12.32
2022-12-14T02:40:56.147Z,11.84
2022-12-14T02:43:32.656Z,12.01
2022-12-14T02:46:10.964Z,11.91
2022-12-14T02:48:43.086Z,12.10
2022-12-14T02:51:22.831Z,12.38
2022-12-14T02:53:57.953Z,12.09
2022-12-14T02:56:34.986Z,12.38
2022-12-14T02:59:06.035Z,12.14
2022-12-14T03:01:37.880Z,12.30
2022-12-14T03:04:07.244Z,12.51
2022-12-14T03:06:35.252Z,12.15
2022-12-14T03:09:06.011Z,12.10
2022-12-14T03:11:38.425Z,12.50
2022-12-14T03:14:11.215Z,12.46
2022-12-14T03:16:44.179Z,12.34
2022-12-14T03:19:18.938Z,12.40
2022-12-14T03:21:50.263Z,12.32
2022-12-14T03:24:22.385Z,12.66
2022-12-14T03:26:55.868Z,12.41
2022-12-14T03:29:28.440Z,12.50
2022-12-14T03:32:00.564Z,12.25
2022-12-14T03:34:32.191Z,12.64
2022-12-14T03:37:05.660Z,12.20
2022-12-14T03:39:35.518Z,12.70
2022-12-14T03:42:11.523Z,12.38
2022-12-14T03:44:49.082Z,12.49
2022-12-14T03:47:44.931Z,12.17
2022-12-14T03:50:17.776Z,12.62
2022-12-14T03:52:54.022Z,12.48
2022-12-14T03:55:29.776Z,12.34
2022-12-14T03:58:12.260Z,12.30
2022-12-14T04:00:46.220Z,12.26
2022-12-14T04:03:24.129Z,12.81
2022-12-14T04:05:56.293Z,12.43
2022-12-14T04:08:37.280Z,12.32
2022-12-14T04:11:26.237Z,12.75
2022-12-14T04:14:17.906Z,12.44
2022-12-14T04:17:06.476Z,12.41
2022-12-14T04:19:42.551Z,12.84
2022-12-14T04:22:14.772Z,12.77
2022-12-14T04:25:05.325Z,12.80
2022-12-14T04:27:38.406Z,12.77
2022-12-14T04:30:09.148Z,12.56
2022-12-14T04:32:42.278Z,12.56
2022-12-14T04:35:19.199Z,12.92
2022-12-14T04:37:53.668Z,12.78
2022-12-14T04:40:25.655Z,12.45
2022-12-14T04:42:56.783Z,12.86
2022-12-14T04:45:31.135Z,12.56
2022-12-14T04:48:09.672Z,12.94
2022-12-14T04:50:43.805Z,12.42
2022-12-14T04:53:15.077Z,12.59
2022-12-14T04:55:50.104Z,12.91
2022-12-14T04:58:23.280Z,12.86
2022-12-14T05:01:05.392Z,12.93
2022-12-14T05:03:37.105Z,12.81
2022-12-14T05:06:16.231Z,12.65
2022-12-14T05:09:03.194Z,12.99
2022-12-14T05:14:30.795Z,12.63
2022-12-14T05:17:03.435Z,12.44
2022-12-14T05:19:34.823Z,12.79
2022-12-14T05:22:08.036Z,12.78
2022-12-14T05:24:36.123Z,12.71
2022-12-14T05:27:04.055Z,13.05
2022-12-14T05:29:32.088Z,13.19
2022-12-14T05:32:00.709Z,13.02
2022-12-14T05:34:28.739Z,12.68
2022-12-14T05:36:56.689Z,13.15
2022-12-14T05:39:26.042Z,13.05
2022-12-14T05:41:54.606Z,13.10
2022-12-14T05:44:22.736Z,12.80
2022-12-14T05:46:50.655Z,13.27
2022-12-14T05:49:18.638Z,13.11
2022-12-14T05:51:46.633Z,13.18
2022-12-14T05:54:14.583Z,13.16
2022-12-14T05:56:43.973Z,12.90
2022-12-14T05:59:15.626Z,13.16
2022-12-14T06:01:44.365Z,12.92
2022-12-14T06:04:13.353Z,13.00
2022-12-14T06:06:41.392Z,13.21
2022-12-14T06:09:11.360Z,13.23
2022-12-14T06:11:41.079Z,13.11
2022-12-14T06:14:11.456Z,12.72
2022-12-14T06:16:41.283Z,13.20
2022-12-14T06:19:09.500Z,12.75
2022-12-14T06:21:40.027Z,13.15
2022-12-14T06:24:09.272Z,13.04
2022-12-14T06:26:40.862Z,13.20
2022-12-14T06:29:16.596Z,12.75
2022-12-14T06:31:44.657Z,13.12
2022-12-14T06:34:12.825Z,12.83
2022-12-14T06:36:43.528Z,12.86
2022-12-14T06:39:13.948Z,13.14
2022-12-14T06:41:42.150Z,12.75
2022-12-14T06:44:13.442Z,13.21
2022-12-14T06:46:41.807Z,13.23
2022-12-14T06:49:14.872Z,13.32
2022-12-14T06:51:43.365Z,13.28
2022-12-14T06:54:12.535Z,13.03
2022-12-14T06:56:41.032Z,13.11
2022-12-14T06:59:09.685Z,12.81
2022-12-14T07:01:39.688Z,13.29
2022-12-14T07:04:08.713Z,12.88
2022-12-14T07:06:38.717Z,13.04
2022-12-14T07:09:08.317Z,12.77
2022-12-14T07:11:36.551Z,13.24
2022-12-14T07:14:06.341Z,12.83
2022-12-14T07:16:36.962Z,13.22
2022-12-14T07:19:06.628Z,13.38
2022-12-14T07:21:34.865Z,13.20
2022-12-14T07:24:03.334Z,12.88
2022-12-14T07:26:31.428Z,12.98
2022-12-14T07:29:00.559Z,12.94
2022-12-14T07:31:30.495Z,13.21
2022-12-14T07:34:01.047Z,13.24
2022-12-14T07:36:33.066Z,12.95
2022-12-14T07:39:01.038Z,13.20
2022-12-14T07:41:32.460Z,13.23
2022-12-14T07:44:01.925Z,12.98
2022-12-14T07:46:32.262Z,13.33
2022-12-14T07:49:01.711Z,13.12
2022-12-14T07:51:33.244Z,13.06
2022-12-14T07:54:02.012Z,13.53
2022-12-14T07:56:31.723Z,13.23
2022-12-14T07:59:01.149Z,13.32
2022-12-14T08:01:31.439Z,13.31
2022-12-14T08:04:01.099Z,13.67
2022-12-14T08:06:30.726Z,13.82
2022-12-14T08:08:59.279Z,13.37
2022-12-14T08:11:27.440Z,13.39
2022-12-14T08:13:55.696Z,13.42
2022-12-14T08:16:24.530Z,13.85
2022-12-14T08:18:54.295Z,13.63
2022-12-14T08:21:23.271Z,13.46
2022-12-14T08:23:54.480Z,13.72
2022-12-14T08:26:23.716Z,13.72
2022-12-14T08:28:51.693Z,13.78
2022-12-14T08:31:21.716Z,13.69
2022-12-14T08:33:50.882Z,13.45
2022-12-14T08:36:22.426Z,13.36
2022-12-14T08:38:55.373Z,13.68
2022-12-14T08:41:24.034Z,13.28
2022-12-14T08:43:56.499Z,13.20
2022-12-14T08:46:25.748Z,13.47
2022-12-14T08:48:55.424Z,13.40
2022-12-14T08:51:24.759Z,13.58
2022-12-14T08:53:55.507Z,13.02
2022-12-14T08:56:26.202Z,13.67
2022-12-14T08:58:54.816Z,13.45
2022-12-14T09:01:30.337Z,13.32
2022-12-14T09:04:05.025Z,13.31
2022-12-14T09:06:35.457Z,13.37
2022-12-14T09:09:08.057Z,13.18
2022-12-14T09:11:38.872Z,13.53
2022-12-14T09:14:07.513Z,13.17
2022-12-14T09:16:35.674Z,13.06
2022-12-14T09:19:03.747Z,13.28
2022-12-14T09:21:32.342Z,13.30
2022-12-14T09:24:00.488Z,13.39
2022-12-14T09:26:30.744Z,13.21
2022-12-14T09:28:59.056Z,13.44
2022-12-14T09:31:28.876Z,13.12
2022-12-14T09:33:57.362Z,13.05
2022-12-14T09:36:28.639Z,13.14
2022-12-14T09:38:57.802Z,13.20
2022-12-14T09:41:38.720Z,13.30
2022-12-14T09:44:18.737Z,13.51
2022-12-14T09:46:57.404Z,13.18
2022-12-14T09:49:29.384Z,13.18
2022-12-14T09:52:01.449Z,13.39
2022-12-14T09:54:32.996Z,13.41
2022-12-14T09:57:08.898Z,13.18
2022-12-14T09:59:36.950Z,13.30
2022-12-14T10:02:31.704Z,13.59
2022-12-14T10:05:21.107Z,13.41
2022-12-14T10:07:59.663Z,13.72
2022-12-14T10:10:32.858Z,13.99
2022-12-14T10:13:11.177Z,14.12
2022-12-14T10:15:45.081Z,14.08
2022-12-14T10:18:58.815Z,13.85
2022-12-14T10:21:35.071Z,13.98
2022-12-14T10:24:06.193Z,14.63
2022-12-14T10:26:42.580Z,15.20
2022-12-14T10:29:18.663Z,15.38
2022-12-14T10:31:56.800Z,15.33
2022-12-14T10:34:29.456Z,14.93
2022-12-14T10:37:07.480Z,14.78
2022-12-14T10:39:49.590Z,14.66
2022-12-14T10:42:25.620Z,14.58
2022-12-14T10:45:39.231Z,15.03
2022-12-14T10:48:05.078Z,14.62
2022-12-14T10:50:50.036Z,14.70
2022-12-14T10:53:25.134Z,15.00
2022-12-14T10:55:57.921Z,14.60
2022-12-14T10:58:26.827Z,14.85
2022-12-14T11:00:56.539Z,14.41
2022-12-14T11:03:24.616Z,14.83
2022-12-14T11:05:59.719Z,14.53
2022-12-14T11:08:43.851Z,14.36
2022-12-14T11:11:19.693Z,14.57
2022-12-14T11:13:53.112Z,14.26
2022-12-14T11:16:35.651Z,14.63
2022-12-14T11:19:06.877Z,14.69
2022-12-14T11:21:39.262Z,14.76
2022-12-14T11:24:08.380Z,14.21
2022-12-14T11:26:39.182Z,14.66
2022-12-14T11:29:17.371Z,14.53
2022-12-14T11:31:48.075Z,14.54
2022-12-14T11:34:26.641Z,14.22
2022-12-14T11:36:54.775Z,14.02
2022-12-14T11:39:24.111Z,13.85
2022-12-14T11:42:00.858Z,14.17
2022-12-14T11:44:37.325Z,13.53
2022-12-14T11:47:12.691Z,14.04
2022-12-14T11:49:46.091Z,13.54
2022-12-14T11:52:17.191Z,13.59
2022-12-14T11:54:49.746Z,13.61
2022-12-14T11:57:26.506Z,13.79
2022-12-14T11:59:57.695Z,14.03
2022-12-14T12:02:31.462Z,13.82
2022-12-14T12:05:05.797Z,14.49
2022-12-14T12:07:35.968Z,14.53
2022-12-14T12:10:15.720Z,14.72
2022-12-14T12:12:54.345Z,14.59
2022-12-14T12:15:26.268Z,14.34
2022-12-14T12:18:00.847Z,14.66
2022-12-14T12:20:35.528Z,14.93
2022-12-14T12:23:11.097Z,14.72
2022-12-14T12:25:41.224Z,14.76
2022-12-14T12:28:16.794Z,14.77
2022-12-14T12:30:50.176Z,14.86
2022-12-14T12:33:27.805Z,14.66
2022-12-14T12:35:56.947Z,14.62
2022-12-14T12:38:42.974Z,14.74
2022-12-14T12:41:29.200Z,14.52
2022-12-14T12:44:06.338Z,14.54
2022-12-14T12:46:53.551Z,14.86
2022-12-14T12:49:28.149Z,14.70
2022-12-14T12:52:00.788Z,14.52
2022-12-14T12:54:32.316Z,14.18
2022-12-14T12:57:03.553Z,14.40
2022-12-14T12:59:37.651Z,14.17
2022-12-14T13:02:19.643Z,14.29
2022-12-14T13:04:53.034Z,14.09
2022-12-14T13:07:29.507Z,14.01
2022-12-14T13:10:05.895Z,14.29
2022-12-14T13:12:38.475Z,13.93
2022-12-14T13:15:16.423Z,14.30
2022-12-14T13:17:49.387Z,14.15
2022-12-14T13:20:23.561Z,14.06
2022-12-14T13:22:52.108Z,13.84
2022-12-14T13:25:25.131Z,13.67
2022-12-14T13:28:07.013Z,14.03
2022-12-14T13:30:52.477Z,13.55
2022-12-14T13:33:53.552Z,13.66
2022-12-14T13:36:49.304Z,13.85
2022-12-14T13:39:39.747Z,13.61
2022-12-14T13:42:09.677Z,13.67
2022-12-14T13:44:56.005Z,13.51
2022-12-14T13:47:30.431Z,13.76
2022-12-14T13:52:51.835Z,13.40
2022-12-14T13:55:32.050Z,13.56
2022-12-14T13:58:17.433Z,13.78
2022-12-14T14:00:58.417Z,13.48
2022-12-14T14:04:14.491Z,13.50
2022-12-14T14:06:43.322Z,13.42
2022-12-14T14:10:02.100Z,13.61
2022-12-14T14:12:41.794Z,13.87
2022-12-14T14:15:38.145Z,13.74
2022-12-14T14:18:17.157Z,13.36
2022-12-14T14:20:47.837Z,13.39
2022-12-14T14:23:57.346Z,13.47
2022-12-14T14:26:29.261Z,13.48
2022-12-14T14:29:25.961Z,14.08
2022-12-14T14:32:01.803Z,13.84
2022-12-14T14:34:46.915Z,13.78
2022-12-14T14:37:27.003Z,14.18
2022-12-14T14:40:13.459Z,13.62
2022-12-14T14:42:54.186Z,13.53
2022-12-14T14:45:38.894Z,13.62
2022-12-14T14:48:20.359Z,13.91
2022-12-14T14:50:50.689Z,13.85
2022-12-14T14:53:31.205Z,13.89
2022-12-14T14:56:36.145Z,13.49
2022-12-14T14:59:43.840Z,13.44
2022-12-14T15:02:35.193Z,13.48
2022-12-14T15:05:40.824Z,13.77
2022-12-14T15:07:55.769Z,13.63
2022-12-14T15:10:29.713Z,13.21
2022-12-14T15:13:02.693Z,13.84
2022-12-14T15:15:36.901Z,13.38
2022-12-14T15:18:22.874Z,13.65
2022-12-14T15:20:58.608Z,13.15
2022-12-14T15:23:36.679Z,13.54
2022-12-14T15:26:16.288Z,13.29
2022-12-14T15:28:48.759Z,13.29
2022-12-14T15:31:17.131Z,13.25
2022-12-14T15:33:48.982Z,13.47
2022-12-14T15:36:19.099Z,13.56
2022-12-14T15:38:55.043Z,13.35
2022-12-14T15:41:25.996Z,13.52
2022-12-14T15:43:59.860Z,13.28
2022-12-14T15:46:31.013Z,13.54
2022-12-14T15:49:01.742Z,13.44
2022-12-14T15:51:33.259Z,13.20
2022-12-14T15:54:04.367Z,13.06
2022-12-14T15:56:34.712Z,13.40
2022-12-14T15:59:05.164Z,13.24
2022-12-14T16:01:38.348Z,13.15
2022-12-14T16:04:12.061Z,13.14
2022-12-14T16:06:43.394Z,13.85
2022-12-14T16:09:21.479Z,13.53
2022-12-14T16:11:52.306Z,13.78
2022-12-14T16:14:24.006Z,14.43
2022-12-14T16:16:52.527Z,14.22
2022-12-14T16:19:29.737Z,14.85
2022-12-14T16:22:14.337Z,15.29
2022-12-14T16:24:59.230Z,15.28
2022-12-14T16:27:28.024Z,15.70
2022-12-14T16:30:07.936Z,15.81
2022-12-14T16:32:36.144Z,17.13
2022-12-14T16:35:06.143Z,17.89
2022-12-14T16:37:34.594Z,17.86
2022-12-14T16:40:02.860Z,18.13
2022-12-14T16:42:33.135Z,18.29
2022-12-14T16:45:01.218Z,18.59
2022-12-14T16:48:02.205Z,17.94
2022-12-14T16:50:55.544Z,17.71
2022-12-14T16:53:24.506Z,17.39
2022-12-14T16:56:03.989Z,17.82
2022-12-14T16:58:32.251Z,18.41
2022-12-14T17:01:03.088Z,19.28
2022-12-14T17:03:32.060Z,18.97
2022-12-14T17:06:05.039Z,19.92
2022-12-14T17:08:34.427Z,20.93
2022-12-14T17:11:03.317Z,21.34
2022-12-14T17:13:31.688Z,21.67
2022-12-14T17:16:02.742Z,20.72
2022-12-14T17:18:34.254Z,20.36
2022-12-14T17:21:04.106Z,19.61
2022-12-14T17:23:33.318Z,19.18
2022-12-14T17:26:01.510Z,18.61
2022-12-14T17:28:32.720Z,18.31
2022-12-14T17:31:01.966Z,18.10
2022-12-14T17:33:32.494Z,18.03
2022-12-14T17:36:00.802Z,17.72
2022-12-14T17:38:30.120Z,17.19
2022-12-14T17:40:58.446Z,17.33
2022-12-14T17:43:28.514Z,17.07
2022-12-14T17:46:00.999Z,17.10
2022-12-14T17:48:29.670Z,17.01
2022-12-14T17:50:57.774Z,16.46
2022-12-14T17:53:30.193Z,16.36
2022-12-14T17:55:59.951Z,17.42
2022-12-14T17:58:27.890Z,17.89
2022-12-14T18:01:02.871Z,17.52
2022-12-14T18:03:36.172Z,18.00
2022-12-14T18:06:05.356Z,20.28
2022-12-14T18:08:33.455Z,20.22
2022-12-14T18:11:11.765Z,20.08
2022-12-14T18:13:42.231Z,19.54
2022-12-14T18:16:13.415Z,18.63
2022-12-14T18:18:41.834Z,18.33
2022-12-14T18:21:17.663Z,17.72
2022-12-14T18:23:46.269Z,17.38
2022-12-14T18:26:21.224Z,17.18
2022-12-14T18:28:49.763Z,16.98
2022-12-14T18:31:23.235Z,17.13
2022-12-14T18:33:52.494Z,17.43
2022-12-14T18:36:22.470Z,17.05
2022-12-14T18:38:53.303Z,17.14
2022-12-14T18:41:26.001Z,17.07
2022-12-14T18:43:54.814Z,16.53
2022-12-14T18:46:23.664Z,16.88
2022-12-14T18:48:52.251Z,16.32
2022-12-14T18:51:23.696Z,16.56
2022-12-14T18:53:52.646Z,16.46
2022-12-14T18:56:23.369Z,16.29
2022-12-14T18:58:52.048Z,16.24
2022-12-14T19:01:23.016Z,16.10
2022-12-14T19:03:52.048Z,15.78
2022-12-14T19:09:12.146Z,15.58
2022-12-14T19:11:43.818Z,15.84
2022-12-14T19:14:13.106Z,15.39
2022-12-14T19:16:42.394Z,15.56
2022-12-14T19:19:11.434Z,15.69
2022-12-14T19:21:40.423Z,15.38
2022-12-14T19:24:10.278Z,15.43
2022-12-14T19:26:44.607Z,15.19
2022-12-14T19:29:21.911Z,14.97
2022-12-14T19:31:54.200Z,15.03
2022-12-14T19:34:27.157Z,15.22
2022-12-14T19:36:56.142Z,15.13
2022-12-14T19:39:28.053Z,15.25
2022-12-14T19:42:00.787Z,15.17
2022-12-14T19:44:33.883Z,15.25
2022-12-14T19:47:03.336Z,15.05
2022-12-14T19:49:31.400Z,14.69
2022-12-14T19:52:00.300Z,14.63
2022-12-14T19:54:31.461Z,14.98
2022-12-14T19:57:00.341Z,14.40
2022-12-14T19:59:30.767Z,14.85
2022-12-14T20:01:59.902Z,14.81
2022-12-14T20:04:28.986Z,14.21
2022-12-14T20:06:57.615Z,14.34
2022-12-14T20:09:26.524Z,14.46
2022-12-14T20:11:55.417Z,14.21
2022-12-14T20:14:27.055Z,14.49
2022-12-14T20:16:57.216Z,14.13
2022-12-14T20:19:26.603Z,14.20
2022-12-14T20:21:55.559Z,14.65
2022-12-14T20:24:23.641Z,14.53
2022-12-14T20:26:53.793Z,14.17
2022-12-14T20:29:22.604Z,14.03
2022-12-14T20:31:51.082Z,14.07
2022-12-14T20:34:21.358Z,14.11
2022-12-14T20:36:49.892Z,14.23
2022-12-14T20:39:18.631Z,13.87
2022-12-14T20:41:46.633Z,13.91
2022-12-14T20:44:16.335Z,14.31
2022-12-14T20:46:46.896Z,13.85
2022-12-14T20:49:17.204Z,14.13
2022-12-14T20:51:47.883Z,14.32
2022-12-14T20:54:18.244Z,15.99
2022-12-14T20:56:49.200Z,16.52
2022-12-14T20:59:17.716Z,16.22
2022-12-14T21:01:51.735Z,15.77
2022-12-14T21:04:23.380Z,15.64
2022-12-14T21:06:52.708Z,15.66
2022-12-14T21:09:20.767Z,15.46
2022-12-14T21:12:07.839Z,14.92
2022-12-14T21:14:37.808Z,14.72
2022-12-14T21:17:06.482Z,14.73
2022-12-14T21:19:35.905Z,14.59
2022-12-14T21:22:06.160Z,14.78
2022-12-14T21:27:26.192Z,14.34
2022-12-14T21:29:55.013Z,14.59
2022-12-14T21:32:24.090Z,14.39
2022-12-14T21:34:52.276Z,14.46
2022-12-14T21:37:22.029Z,14.52
2022-12-14T21:39:54.601Z,14.02
2022-12-14T21:42:22.781Z,14.36
2022-12-14T21:44:52.526Z,14.10
2022-12-14T21:47:23.000Z,14.37
2022-12-14T21:49:51.061Z,14.33
2022-12-14T21:52:22.729Z,14.22
2022-12-14T21:54:51.173Z,13.87
2022-12-14T21:57:38.481Z,13.83
2022-12-14T22:00:09.152Z,14.04
2022-12-14T22:02:41.657Z,14.24
2022-12-14T22:05:10.478Z,14.02
2022-12-14T22:07:39.901Z,13.79
2022-12-14T22:10:08.664Z,14.14
2022-12-14T22:12:36.883Z,13.58
2022-12-14T22:15:05.329Z,14.13
2022-12-14T22:17:33.270Z,14.08
2022-12-14T22:20:01.202Z,14.05
2022-12-14T22:22:29.181Z,13.77
2022-12-14T22:24:59.664Z,13.70
2022-12-14T22:27:27.611Z,13.99
2022-12-14T22:29:55.581Z,13.50
2022-12-14T22:32:23.575Z,13.95
2022-12-14T22:34:51.562Z,13.48
2022-12-14T22:37:19.725Z,13.63
2022-12-14T22:39:48.376Z,13.85
2022-12-14T22:42:18.269Z,13.61
2022-12-14T22:44:46.387Z,13.36
2022-12-14T22:47:14.336Z,13.64
2022-12-14T22:49:43.327Z,13.99
2022-12-14T22:52:11.796Z,13.96
2022-12-14T22:54:41.158Z,13.93
2022-12-14T22:57:14.448Z,13.57
2022-12-14T22:59:49.582Z,13.53
2022-12-14T23:02:18.255Z,13.76
2022-12-14T23:04:46.424Z,13.48
2022-12-14T23:07:18.670Z,13.53
2022-12-14T23:10:04.615Z,13.47
2022-12-14T23:12:50.142Z,13.39
2022-12-14T23:15:37.179Z,13.86
2022-12-14T23:18:24.730Z,13.72
2022-12-14T23:21:11.070Z,13.40
2022-12-14T23:23:56.852Z,13.58
2022-12-14T23:26:42.092Z,13.38
2022-12-14T23:29:27.363Z,13.26
2022-12-14T23:32:14.671Z,13.30
2022-12-14T23:35:00.432Z,13.15
2022-12-14T23:37:46.276Z,13.31
2022-12-14T23:40:32.105Z,13.21
2022-12-14T23:43:26.688Z,13.08
2022-12-14T23:46:12.844Z,12.99
2022-12-14T23:49:00.079Z,12.96
2022-12-14T23:51:45.716Z,13.15
2022-12-14T23:54:31.504Z,12.75
2022-12-14T23:57:17.270Z,12.49
